Time;durP1;ratioP1;P1;durP2;ratioP2;P2;SDS_P1;SDS_P2;PMS_P1;PMS_P2;Temp;Humidity;BMP_temperature;BMP_pressure;BME280_temperature;BME280_humidity;BME280_pressure;Samples;Min_cycle;Max_cycle;Signal;HPM_P1;HPM_P2
2022/10/22 00:01:23;;;;;;;12.98;8.80;;;;;;;;;;5049505;28;20095;-80
2022/10/22 00:03:49;;;;;;;16.10;9.27;;;;;;;;;;5053857;28;20461;-80
2022/10/22 00:06:15;;;;;;;16.45;9.13;;;;;;;;;;5054121;28;20116;-80
2022/10/22 00:08:42;;;;;;;13.55;8.82;;;;;;;;;;5054136;28;20088;-80
2022/10/22 00:11:12;;;;;;;11.65;8.93;;;;;;;;;;5037003;28;20049;-80
2022/10/22 00:13:38;;;;;;;12.18;8.90;;;;;;;;;;5054218;28;20056;-80
2022/10/22 00:16:05;;;;;;;14.57;9.02;;;;;;;;;;5054072;28;20048;-80
2022/10/22 00:18:31;;;;;;;14.45;9.02;;;;;;;;;;5053945;28;20049;-80
2022/10/22 00:20:57;;;;;;;14.68;8.65;;;;;;;;;;5053347;28;20052;-80
2022/10/22 00:23:23;;;;;;;16.70;9.38;;;;;;;;;;5050823;28;20506;-80
2022/10/22 00:25:49;;;;;;;20.30;10.18;;;;;;;;;;5035680;28;20045;-80
2022/10/22 00:28:15;;;;;;;13.95;8.68;;;;;;;;;;5050882;28;20121;-80
2022/10/22 00:30:41;;;;;;;11.80;8.82;;;;;;;;;;5039197;28;20037;-80
2022/10/22 00:33:07;;;;;;;15.05;9.98;;;;;;;;;;5053746;28;20041;-80
2022/10/22 00:35:33;;;;;;;15.00;9.60;;;;;;;;;;5053966;28;20059;-80
2022/10/22 00:37:59;;;;;;;14.75;9.80;;;;;;;;;;5053098;28;20132;-80
2022/10/22 00:40:25;;;;;;;13.43;9.55;;;;;;;;;;5038401;28;20134;-80
2022/10/22 00:42:51;;;;;;;19.80;9.70;;;;;;;;;;5048932;28;20148;-80
2022/10/22 00:45:19;;;;;;;14.32;10.07;;;;;;;;;;5053628;28;20204;-80
2022/10/22 00:47:50;;;;;;;13.82;9.93;;;;;;;;;;5052040;28;20118;-80
2022/10/22 00:50:35;;;;;;;14.52;9.65;;;;;;;;;;5053507;28;20502;-80
2022/10/22 00:53:02;;;;;;;16.60;10.10;;;;;;;;;;5053301;28;20041;-80
2022/10/22 00:55:29;;;;;;;19.02;10.85;;;;;;;;;;5053524;28;20480;-80
2022/10/22 00:57:56;;;;;;;16.42;9.82;;;;;;;;;;5053086;28;20447;-80
2022/10/22 01:00:22;;;;;;;13.93;9.90;;;;;;;;;;5016371;28;20422;-80
2022/10/22 01:02:50;;;;;;;15.43;10.57;;;;;;;;;;5047977;28;20045;-80
2022/10/22 01:05:16;;;;;;;16.55;10.98;;;;;;;;;;5053287;28;20064;-80
2022/10/22 01:07:49;;;;;;;12.10;9.02;;;;;;;;;;5047096;28;20045;-80
2022/10/22 01:10:24;;;;;;;13.68;9.23;;;;;;;;;;5042536;28;20128;-80
2022/10/22 01:12:50;;;;;;;13.40;9.25;;;;;;;;;;5053392;28;20147;-80
2022/10/22 01:15:24;;;;;;;13.02;9.20;;;;;;;;;;5053237;28;20446;-80
2022/10/22 01:18:08;;;;;;;16.45;9.80;;;;;;;;;;5053034;28;20052;-80
2022/10/22 01:20:40;;;;;;;15.52;10.13;;;;;;;;;;5053117;28;20045;-80
2022/10/22 01:23:21;;;;;;;14.15;9.48;;;;;;;;;;5048578;28;20997;-80
2022/10/22 01:25:55;;;;;;;13.60;8.98;;;;;;;;;;5043034;28;21794;-80
2022/10/22 01:28:40;;;;;;;13.32;9.38;;;;;;;;;;5045224;28;20037;-80
2022/10/22 01:31:07;;;;;;;15.38;9.95;;;;;;;;;;5048523;28;20053;-80
2022/10/22 01:33:34;;;;;;;16.48;10.07;;;;;;;;;;5050290;28;20049;-80
2022/10/22 01:36:00;;;;;;;15.40;10.23;;;;;;;;;;5052409;28;20128;-80
2022/10/22 01:38:26;;;;;;;11.73;9.15;;;;;;;;;;5052498;28;20515;-80
2022/10/22 01:40:52;;;;;;;16.95;10.32;;;;;;;;;;5036002;28;20511;-80
2022/10/22 01:43:18;;;;;;;14.93;9.35;;;;;;;;;;5056876;28;20154;-80
2022/10/22 01:45:57;;;;;;;17.13;10.25;;;;;;;;;;5054619;28;20045;-80
2022/10/22 01:48:42;;;;;;;18.38;9.75;;;;;;;;;;5056818;28;20045;-80
2022/10/22 01:51:27;;;;;;;14.98;9.60;;;;;;;;;;5037129;28;20041;-80
2022/10/22 01:54:11;;;;;;;15.55;10.20;;;;;;;;;;5036871;28;20072;-80
2022/10/22 01:56:37;;;;;;;14.90;9.20;;;;;;;;;;5036968;28;20485;-80
2022/10/22 01:59:35;;;;;;;14.27;10.25;;;;;;;;;;5056733;28;20090;-80
2022/10/22 02:02:11;;;;;;;15.30;9.75;;;;;;;;;;5034165;28;20124;-80
2022/10/22 02:04:57;;;;;;;14.97;10.63;;;;;;;;;;5020842;28;20133;-80
2022/10/22 02:07:25;;;;;;;15.10;10.30;;;;;;;;;;5013476;28;20101;-80
2022/10/22 02:09:52;;;;;;;14.65;10.00;;;;;;;;;;5033794;28;20076;-80
2022/10/22 02:12:19;;;;;;;17.60;10.05;;;;;;;;;;5023759;28;20061;-80
2022/10/22 02:14:46;;;;;;;14.98;9.68;;;;;;;;;;5014269;28;20429;-80
2022/10/22 02:17:15;;;;;;;12.60;9.93;;;;;;;;;;5014188;28;20492;-80
2022/10/22 02:19:46;;;;;;;14.45;9.45;;;;;;;;;;5014970;28;20108;-80
2022/10/22 02:22:12;;;;;;;15.00;10.05;;;;;;;;;;5014860;28;20545;-80
2022/10/22 02:24:38;;;;;;;22.10;10.52;;;;;;;;;;5014706;28;20108;-80
2022/10/22 02:27:12;;;;;;;13.80;9.30;;;;;;;;;;5018262;28;20599;-80
2022/10/22 02:29:45;;;;;;;12.27;9.07;;;;;;;;;;5033877;28;20526;-80
2022/10/22 02:32:14;;;;;;;12.95;9.05;;;;;;;;;;5033925;28;20061;-80
2022/10/22 02:34:41;;;;;;;15.00;9.88;;;;;;;;;;5050695;28;20132;-80
2022/10/22 02:37:07;;;;;;;14.10;8.65;;;;;;;;;;5036663;28;20053;-80
2022/10/22 02:39:34;;;;;;;14.25;9.52;;;;;;;;;;5056146;28;20496;-80
2022/10/22 02:42:01;;;;;;;16.10;9.68;;;;;;;;;;5055917;28;20049;-80
2022/10/22 02:44:27;;;;;;;15.18;9.65;;;;;;;;;;5054428;28;20041;-80
2022/10/22 02:46:53;;;;;;;15.77;9.25;;;;;;;;;;5055580;28;20045;-80
2022/10/22 02:49:19;;;;;;;14.50;9.68;;;;;;;;;;5055649;28;20044;-80
2022/10/22 02:51:45;;;;;;;17.70;10.07;;;;;;;;;;5055184;28;20112;-80
2022/10/22 02:54:12;;;;;;;13.88;9.25;;;;;;;;;;5054663;28;20516;-80
2022/10/22 02:56:38;;;;;;;16.17;9.65;;;;;;;;;;5055132;28;20134;-80
2022/10/22 02:59:04;;;;;;;14.88;9.82;;;;;;;;;;5035782;28;20112;-80
2022/10/22 03:01:30;;;;;;;13.10;8.32;;;;;;;;;;5048691;28;20041;-80
2022/10/22 03:03:56;;;;;;;12.80;8.70;;;;;;;;;;5055858;28;20041;-80
2022/10/22 03:06:22;;;;;;;13.13;8.30;;;;;;;;;;5047578;28;20048;-80
2022/10/22 03:08:48;;;;;;;14.15;8.43;;;;;;;;;;5036781;28;20559;-80
2022/10/22 03:11:14;;;;;;;12.57;8.13;;;;;;;;;;5052864;28;20083;-80
2022/10/22 03:13:40;;;;;;;13.25;8.55;;;;;;;;;;5055308;28;20069;-80
2022/10/22 03:16:06;;;;;;;14.52;8.20;;;;;;;;;;5054933;28;20460;-80
2022/10/22 03:18:32;;;;;;;11.82;7.80;;;;;;;;;;5069431;28;20488;-80
2022/10/22 03:21:24;;;;;;;16.73;8.63;;;;;;;;;;5055716;28;20114;-80
2022/10/22 03:23:51;;;;;;;14.32;7.78;;;;;;;;;;5054744;28;20512;-81
2022/10/22 03:26:17;;;;;;;14.10;7.20;;;;;;;;;;5044432;28;20520;-80
2022/10/22 03:28:45;;;;;;;11.93;7.78;;;;;;;;;;5055454;28;20135;-80
2022/10/22 03:31:11;;;;;;;12.13;7.68;;;;;;;;;;5045406;28;20042;-80
2022/10/22 03:33:37;;;;;;;11.60;7.60;;;;;;;;;;5043907;28;20074;-80
2022/10/22 03:36:03;;;;;;;18.10;8.25;;;;;;;;;;5054427;28;20041;-80
2022/10/22 03:38:30;;;;;;;14.48;8.25;;;;;;;;;;5039863;28;20053;-80
2022/10/22 03:40:56;;;;;;;14.73;8.43;;;;;;;;;;5035504;28;20053;-80
2022/10/22 03:43:22;;;;;;;14.57;8.70;;;;;;;;;;5034747;28;20049;-80
2022/10/22 03:45:48;;;;;;;13.65;8.75;;;;;;;;;;5064392;28;20049;-80
2022/10/22 03:48:14;;;;;;;16.65;9.10;;;;;;;;;;5054541;28;20048;-80
2022/10/22 03:50:40;;;;;;;18.33;10.30;;;;;;;;;;5054524;28;20041;-80
2022/10/22 03:53:09;;;;;;;18.50;9.80;;;;;;;;;;5054424;28;20451;-80
2022/10/22 03:55:36;;;;;;;14.38;8.70;;;;;;;;;;5057035;28;20060;-80
2022/10/22 03:58:03;;;;;;;13.90;7.90;;;;;;;;;;5074297;28;20056;-80
2022/10/22 04:00:29;;;;;;;11.23;6.93;;;;;;;;;;5056571;28;20037;-80
2022/10/22 04:02:58;;;;;;;10.15;7.07;;;;;;;;;;5034728;28;20053;-80
2022/10/22 04:05:24;;;;;;;13.18;6.45;;;;;;;;;;5039642;28;20162;-80
2022/10/22 04:07:50;;;;;;;10.98;6.80;;;;;;;;;;5044807;28;20049;-80
2022/10/22 04:10:16;;;;;;;10.52;6.60;;;;;;;;;;5054007;28;20048;-80
2022/10/22 04:12:42;;;;;;;10.65;7.28;;;;;;;;;;5056411;28;20045;-80
2022/10/22 04:15:08;;;;;;;10.95;6.60;;;;;;;;;;5066211;28;20088;-80
2022/10/22 04:17:35;;;;;;;13.93;7.18;;;;;;;;;;5054092;28;20083;-80
2022/10/22 04:20:02;;;;;;;10.50;6.53;;;;;;;;;;5053983;28;20125;-80
2022/10/22 04:22:28;;;;;;;10.20;6.63;;;;;;;;;;5053958;28;20041;-80
2022/10/22 04:24:54;;;;;;;14.90;7.32;;;;;;;;;;5053501;28;20053;-80
2022/10/22 04:27:20;;;;;;;16.55;8.68;;;;;;;;;;5053603;28;20049;-80
2022/10/22 04:29:46;;;;;;;18.63;9.07;;;;;;;;;;5052328;28;20041;-80
2022/10/22 04:32:12;;;;;;;18.75;9.00;;;;;;;;;;5050827;28;20049;-80
2022/10/22 04:34:38;;;;;;;16.70;9.27;;;;;;;;;;5033187;28;20050;-80
2022/10/22 04:37:04;;;;;;;19.30;9.75;;;;;;;;;;5053314;28;20040;-80
2022/10/22 04:39:30;;;;;;;17.42;7.35;;;;;;;;;;5053632;28;20044;-80
2022/10/22 04:41:56;;;;;;;13.57;7.25;;;;;;;;;;5053315;28;20403;-80
2022/10/22 04:44:22;;;;;;;13.32;7.03;;;;;;;;;;5052299;28;20056;-80
2022/10/22 04:46:48;;;;;;;10.73;6.57;;;;;;;;;;5053579;28;20045;-80
2022/10/22 04:49:14;;;;;;;15.18;7.10;;;;;;;;;;5053366;28;20130;-80
2022/10/22 04:51:41;;;;;;;13.07;7.20;;;;;;;;;;5053408;28;20094;-80
2022/10/22 04:54:07;;;;;;;11.13;6.50;;;;;;;;;;5053500;28;20067;-79
2022/10/22 04:56:33;;;;;;;9.05;6.45;;;;;;;;;;5048284;28;21786;-80
2022/10/22 04:59:00;;;;;;;13.45;6.85;;;;;;;;;;5053482;28;20488;-80
2022/10/22 05:01:30;;;;;;;10.00;6.10;;;;;;;;;;5048625;28;20041;-79
2022/10/22 05:03:57;;;;;;;13.30;6.95;;;;;;;;;;5052969;28;20069;-80
2022/10/22 05:06:24;;;;;;;11.40;6.68;;;;;;;;;;5053384;28;20132;-80
2022/10/22 05:08:54;;;;;;;11.00;6.72;;;;;;;;;;5049712;28;20046;-79
2022/10/22 05:11:22;;;;;;;13.77;7.47;;;;;;;;;;5040287;28;20044;-80
2022/10/22 05:13:48;;;;;;;19.42;7.55;;;;;;;;;;5052836;28;20487;-79
2022/10/22 05:16:14;;;;;;;15.70;7.85;;;;;;;;;;5052271;28;20095;-80
2022/10/22 05:18:42;;;;;;;17.70;7.32;;;;;;;;;;5053056;28;20044;-80
2022/10/22 05:21:09;;;;;;;11.63;6.85;;;;;;;;;;5053148;28;20037;-80
2022/10/22 05:23:35;;;;;;;13.80;6.47;;;;;;;;;;5051933;28;20141;-80
2022/10/22 05:26:02;;;;;;;13.68;6.40;;;;;;;;;;5033403;28;20044;-80
2022/10/22 05:28:28;;;;;;;16.65;8.10;;;;;;;;;;5041798;28;20128;-80
2022/10/22 05:30:55;;;;;;;14.93;6.70;;;;;;;;;;5050434;28;20103;-80
2022/10/22 05:33:21;;;;;;;13.95;5.93;;;;;;;;;;5073568;28;20045;-80
2022/10/22 05:35:48;;;;;;;8.60;5.85;;;;;;;;;;5073102;28;20044;-80
2022/10/22 05:38:14;;;;;;;13.45;6.18;;;;;;;;;;5058287;28;20048;-80
2022/10/22 05:40:40;;;;;;;12.20;6.40;;;;;;;;;;5051414;28;20047;-80
2022/10/22 05:43:06;;;;;;;10.75;6.18;;;;;;;;;;5033225;28;20160;-80
2022/10/22 05:45:35;;;;;;;11.48;6.00;;;;;;;;;;5036777;28;20067;-80
2022/10/22 05:48:01;;;;;;;9.40;5.78;;;;;;;;;;5040179;28;20493;-80
2022/10/22 05:50:27;;;;;;;11.23;5.78;;;;;;;;;;5048928;28;20493;-80
2022/10/22 05:52:53;;;;;;;13.10;6.10;;;;;;;;;;5052755;28;20041;-80
2022/10/22 05:55:19;;;;;;;8.32;5.70;;;;;;;;;;5052624;28;20045;-80
2022/10/22 05:57:48;;;;;;;13.43;6.32;;;;;;;;;;5045527;28;20037;-80
2022/10/22 06:00:14;;;;;;;10.38;5.97;;;;;;;;;;5036201;28;20052;-80
2022/10/22 06:02:40;;;;;;;9.48;5.82;;;;;;;;;;5052753;28;20041;-80
2022/10/22 06:05:06;;;;;;;9.85;5.45;;;;;;;;;;5052494;28;20041;-80
2022/10/22 06:07:32;;;;;;;13.77;6.80;;;;;;;;;;5048455;28;20054;-79
2022/10/22 06:09:59;;;;;;;11.85;6.07;;;;;;;;;;5040943;28;20098;-80
2022/10/22 06:12:25;;;;;;;9.55;5.45;;;;;;;;;;5040471;28;20049;-80
2022/10/22 06:14:51;;;;;;;14.73;6.45;;;;;;;;;;5048181;28;20044;-80
2022/10/22 06:17:18;;;;;;;12.48;6.10;;;;;;;;;;5042049;28;20037;-80
2022/10/22 06:19:44;;;;;;;9.23;6.05;;;;;;;;;;5039753;28;20045;-80
2022/10/22 06:22:10;;;;;;;11.32;6.13;;;;;;;;;;5052846;28;20124;-83
2022/10/22 06:24:36;;;;;;;14.52;6.43;;;;;;;;;;5052700;28;20094;-79
2022/10/22 06:27:02;;;;;;;10.45;6.70;;;;;;;;;;5052540;28;20044;-80
2022/10/22 06:29:28;;;;;;;11.35;6.35;;;;;;;;;;5042270;28;20041;-79
2022/10/22 06:31:54;;;;;;;12.43;7.22;;;;;;;;;;5062993;28;20140;-79
2022/10/22 06:34:20;;;;;;;14.10;6.70;;;;;;;;;;5065336;28;20088;-81
2022/10/22 06:36:47;;;;;;;14.20;6.75;;;;;;;;;;5056107;28;20048;-81
2022/10/22 06:39:14;;;;;;;14.55;7.22;;;;;;;;;;5056101;28;20091;-80
2022/10/22 06:41:40;;;;;;;15.13;6.38;;;;;;;;;;5055983;28;20072;-80
2022/10/22 06:44:06;;;;;;;11.60;6.20;;;;;;;;;;5056006;28;20044;-80
2022/10/22 06:46:32;;;;;;;13.02;6.43;;;;;;;;;;5053751;28;20060;-79
2022/10/22 06:49:00;;;;;;;8.77;6.18;;;;;;;;;;5056135;28;20059;-80
2022/10/22 06:51:26;;;;;;;11.65;6.60;;;;;;;;;;5054138;28;20190;-80
2022/10/22 06:53:53;;;;;;;13.68;6.32;;;;;;;;;;5054365;28;20480;-80
2022/10/22 06:56:20;;;;;;;16.60;6.80;;;;;;;;;;5042591;28;20060;-80
2022/10/22 06:58:47;;;;;;;13.40;6.40;;;;;;;;;;5050895;28;20043;-81
2022/10/22 07:01:14;;;;;;;13.88;6.25;;;;;;;;;;5041748;28;20056;-80
2022/10/22 07:03:41;;;;;;;16.88;6.95;;;;;;;;;;5055623;28;20488;-81
2022/10/22 07:06:09;;;;;;;10.00;5.80;;;;;;;;;;5046432;28;20041;-81
2022/10/22 07:08:35;;;;;;;14.77;6.65;;;;;;;;;;5035489;28;20115;-80
2022/10/22 07:11:06;;;;;;;14.32;6.50;;;;;;;;;;5057818;28;20396;-81
2022/10/22 07:13:32;;;;;;;11.88;5.68;;;;;;;;;;5075466;28;20045;-80
2022/10/22 07:15:58;;;;;;;10.52;6.28;;;;;;;;;;5075563;28;20044;-81
2022/10/22 07:18:24;;;;;;;12.90;6.07;;;;;;;;;;5075258;28;20088;-81
2022/10/22 07:20:50;;;;;;;21.13;6.18;;;;;;;;;;5075387;28;20041;-80
2022/10/22 07:23:16;;;;;;;12.77;6.10;;;;;;;;;;5043564;28;20445;-80
2022/10/22 07:25:42;;;;;;;10.10;6.38;;;;;;;;;;5053229;28;20041;-80
2022/10/22 07:28:08;;;;;;;10.40;6.18;;;;;;;;;;5049492;28;20082;-81
2022/10/22 07:30:35;;;;;;;9.82;5.90;;;;;;;;;;5046692;28;20041;-80
2022/10/22 07:33:01;;;;;;;10.23;6.20;;;;;;;;;;5054927;28;20550;-79
2022/10/22 07:35:27;;;;;;;11.75;6.00;;;;;;;;;;5055616;28;20449;-82
2022/10/22 07:37:53;;;;;;;13.45;6.32;;;;;;;;;;5055283;28;20053;-80
2022/10/22 07:40:19;;;;;;;9.88;5.72;;;;;;;;;;5054573;28;20047;-81
2022/10/22 07:42:45;;;;;;;12.02;6.25;;;;;;;;;;5055731;28;20045;-80
2022/10/22 07:45:11;;;;;;;11.50;6.30;;;;;;;;;;5055242;28;20546;-81
2022/10/22 07:47:37;;;;;;;12.82;6.20;;;;;;;;;;5054027;28;20504;-80
2022/10/22 07:50:05;;;;;;;11.13;5.95;;;;;;;;;;5053453;28;20041;-80
2022/10/22 07:52:31;;;;;;;11.70;6.13;;;;;;;;;;5055162;28;20041;-80
2022/10/22 07:54:57;;;;;;;11.02;5.88;;;;;;;;;;5046407;28;20128;-80
2022/10/22 07:57:23;;;;;;;10.48;6.15;;;;;;;;;;5050096;28;20050;-80
2022/10/22 07:59:49;;;;;;;13.93;5.80;;;;;;;;;;5034918;28;20045;-80
2022/10/22 08:02:15;;;;;;;9.43;6.03;;;;;;;;;;5053002;28;20041;-84
2022/10/22 08:04:41;;;;;;;12.10;6.47;;;;;;;;;;5053899;28;20492;-84
2022/10/22 08:07:07;;;;;;;11.65;6.35;;;;;;;;;;5055084;28;20399;-81
2022/10/22 08:09:33;;;;;;;9.98;6.30;;;;;;;;;;5059177;28;20053;-81
2022/10/22 08:11:59;;;;;;;9.98;5.78;;;;;;;;;;5057994;28;20112;-82
2022/10/22 08:14:25;;;;;;;9.57;5.82;;;;;;;;;;5055305;28;20081;-80
2022/10/22 08:16:51;;;;;;;8.88;6.00;;;;;;;;;;5039747;28;20120;-80
2022/10/22 08:19:19;;;;;;;13.95;5.90;;;;;;;;;;5038088;28;20119;-81
2022/10/22 08:21:46;;;;;;;20.98;6.57;;;;;;;;;;5049367;28;20137;-80
2022/10/22 08:24:15;;;;;;;12.10;6.07;;;;;;;;;;5045800;28;20507;-80
2022/10/22 08:26:41;;;;;;;14.55;6.00;;;;;;;;;;5051289;28;20041;-80
2022/10/22 08:29:09;;;;;;;11.50;6.15;;;;;;;;;;5050360;28;20045;-80
2022/10/22 08:31:38;;;;;;;10.68;6.82;;;;;;;;;;5053312;28;20041;-80
2022/10/22 08:34:04;;;;;;;12.30;6.18;;;;;;;;;;5039102;28;20492;-80
2022/10/22 08:36:30;;;;;;;12.80;5.93;;;;;;;;;;5034159;28;20041;-80
2022/10/22 08:38:56;;;;;;;10.73;6.65;;;;;;;;;;5068061;28;20048;-80
2022/10/22 08:41:23;;;;;;;9.95;5.82;;;;;;;;;;5042537;28;20092;-80
2022/10/22 08:43:58;;;;;;;11.65;5.65;;;;;;;;;;5043048;28;20044;-80
2022/10/22 08:46:24;;;;;;;12.52;6.22;;;;;;;;;;5026542;28;20055;-80
2022/10/22 08:48:53;;;;;;;9.40;5.70;;;;;;;;;;5057236;28;20072;-80
2022/10/22 08:51:21;;;;;;;11.40;5.35;;;;;;;;;;5052900;28;20063;-80
2022/10/22 08:53:49;;;;;;;12.65;5.00;;;;;;;;;;5053596;28;20041;-80
2022/10/22 08:56:15;;;;;;;11.93;5.15;;;;;;;;;;5053488;28;20045;-80
2022/10/22 08:58:45;;;;;;;7.65;4.90;;;;;;;;;;5053666;28;20168;-80
2022/10/22 09:01:13;;;;;;;10.00;5.30;;;;;;;;;;5029470;28;20097;-80
2022/10/22 09:03:57;;;;;;;11.95;5.43;;;;;;;;;;5039071;28;20045;-80
2022/10/22 09:06:27;;;;;;;11.02;5.38;;;;;;;;;;5054815;28;20512;-78
2022/10/22 09:08:54;;;;;;;10.48;4.85;;;;;;;;;;5054423;28;20503;-78
2022/10/22 09:11:25;;;;;;;11.52;4.93;;;;;;;;;;5054273;28;20052;-76
2022/10/22 09:13:53;;;;;;;10.77;5.40;;;;;;;;;;5053177;28;20063;-81
2022/10/22 09:16:19;;;;;;;8.93;4.32;;;;;;;;;;5037419;28;20520;-83
2022/10/22 09:18:51;;;;;;;13.05;5.28;;;;;;;;;;5051482;28;20080;-80
2022/10/22 09:21:36;;;;;;;13.98;5.13;;;;;;;;;;5045153;28;20048;-81
2022/10/22 09:24:08;;;;;;;12.10;5.28;;;;;;;;;;5041648;28;20112;-81
2022/10/22 09:26:36;;;;;;;10.23;4.70;;;;;;;;;;5044978;28;20139;-81
2022/10/22 09:29:03;;;;;;;11.52;4.63;;;;;;;;;;5052459;28;20049;-80
2022/10/22 09:31:30;;;;;;;9.18;4.72;;;;;;;;;;5055050;28;20041;-81
2022/10/22 09:33:58;;;;;;;10.07;4.07;;;;;;;;;;5073343;28;20376;-80
2022/10/22 09:36:24;;;;;;;10.55;4.10;;;;;;;;;;5073404;28;20101;-81
2022/10/22 09:38:51;;;;;;;11.25;4.28;;;;;;;;;;5073876;28;20045;-81
2022/10/22 09:41:18;;;;;;;11.90;4.20;;;;;;;;;;5060980;28;20042;-78
2022/10/22 09:43:48;;;;;;;12.80;4.82;;;;;;;;;;5065265;28;20049;-78
2022/10/22 09:46:18;;;;;;;9.88;4.60;;;;;;;;;;5064515;28;20040;-81
2022/10/22 09:48:48;;;;;;;12.98;3.95;;;;;;;;;;5052603;28;20041;-81
2022/10/22 09:51:21;;;;;;;12.00;3.97;;;;;;;;;;5033540;28;20077;-79
2022/10/22 09:53:55;;;;;;;12.30;4.43;;;;;;;;;;5033971;28;20037;-79
2022/10/22 09:56:21;;;;;;;13.50;4.40;;;;;;;;;;5038984;28;20042;-79
2022/10/22 09:58:50;;;;;;;10.63;3.88;;;;;;;;;;5038729;28;20037;-81
2022/10/22 10:01:21;;;;;;;10.63;3.95;;;;;;;;;;5036034;28;20068;-78
2022/10/22 10:03:48;;;;;;;11.75;4.03;;;;;;;;;;5040754;28;20550;-80
2022/10/22 10:06:17;;;;;;;11.15;5.03;;;;;;;;;;5042267;28;20041;-80
2022/10/22 10:08:43;;;;;;;13.80;4.50;;;;;;;;;;5056435;28;20081;-80
2022/10/22 10:11:09;;;;;;;13.52;4.60;;;;;;;;;;5055112;28;20106;-80
2022/10/22 10:13:54;;;;;;;11.77;4.53;;;;;;;;;;5056581;28;20053;-80
2022/10/22 10:16:32;;;;;;;10.10;5.03;;;;;;;;;;5056404;28;20396;-80
2022/10/22 10:19:09;;;;;;;10.98;4.70;;;;;;;;;;5056454;28;20488;-80
2022/10/22 10:21:38;;;;;;;10.30;5.25;;;;;;;;;;5057089;28;20577;-80
2022/10/22 10:24:18;;;;;;;9.52;4.72;;;;;;;;;;5057047;28;20086;-81
2022/10/22 10:27:04;;;;;;;12.82;5.60;;;;;;;;;;5036537;28;20485;-79
2022/10/22 10:29:30;;;;;;;;;;;;;;;;;;5036761;28;20523;-79
2022/10/22 10:31:59;;;;;;;12.23;4.90;;;;;;;;;;5036616;28;19921;-80
2022/10/22 10:34:44;;;;;;;10.07;5.70;;;;;;;;;;5037092;28;20041;-79
2022/10/22 10:37:17;;;;;;;11.40;5.72;;;;;;;;;;5038295;28;20124;-80
2022/10/22 10:39:55;;;;;;;10.80;5.47;;;;;;;;;;5047927;28;20041;-77
2022/10/22 10:42:36;;;;;;;10.57;5.40;;;;;;;;;;5059030;28;20041;-80
2022/10/22 10:45:08;;;;;;;10.68;5.55;;;;;;;;;;5048733;28;20037;-80
2022/10/22 10:47:40;;;;;;;9.77;5.00;;;;;;;;;;5061293;28;21771;-79
2022/10/22 10:50:25;;;;;;;12.00;5.38;;;;;;;;;;5059839;28;20182;-79
2022/10/22 10:52:59;;;;;;;12.27;5.30;;;;;;;;;;5060499;28;20601;-79
2022/10/22 10:55:29;;;;;;;11.98;5.20;;;;;;;;;;5060707;28;20059;-79
2022/10/22 10:57:59;;;;;;;8.70;4.90;;;;;;;;;;5059965;28;20048;-79
2022/10/22 11:00:26;;;;;;;11.27;4.45;;;;;;;;;;5053357;28;20072;-79
2022/10/22 11:03:11;;;;;;;6.32;4.10;;;;;;;;;;5059949;28;20041;-79
2022/10/22 11:05:45;;;;;;;7.55;4.20;;;;;;;;;;5061204;28;20064;-79
2022/10/22 11:08:30;;;;;;;7.60;4.45;;;;;;;;;;5060430;28;20516;-79
2022/10/22 11:11:05;;;;;;;9.75;4.53;;;;;;;;;;5059718;28;20049;-79
2022/10/22 11:13:34;;;;;;;8.70;4.57;;;;;;;;;;5060331;28;20057;-79
2022/10/22 11:16:09;;;;;;;9.35;5.20;;;;;;;;;;5045432;28;20073;-79
2022/10/22 11:18:39;;;;;;;11.80;5.75;;;;;;;;;;5057964;28;20049;-79
2022/10/22 11:21:08;;;;;;;10.70;6.45;;;;;;;;;;5059995;28;20492;-79
2022/10/22 11:24:01;;;;;;;11.60;6.43;;;;;;;;;;5060135;28;20120;-79
2022/10/22 11:26:47;;;;;;;13.68;6.80;;;;;;;;;;5059884;28;20171;-79
2022/10/22 11:29:19;;;;;;;10.70;7.18;;;;;;;;;;5039182;28;20484;-79
2022/10/22 11:31:45;;;;;;;10.55;6.47;;;;;;;;;;5038756;28;20041;-79
2022/10/22 11:34:11;;;;;;;9.57;6.38;;;;;;;;;;5053447;28;20045;-79
2022/10/22 11:36:38;;;;;;;10.60;6.55;;;;;;;;;;5058970;28;20130;-79
2022/10/22 11:39:04;;;;;;;12.85;6.80;;;;;;;;;;5058352;28;20045;-79
2022/10/22 11:41:32;;;;;;;11.82;6.60;;;;;;;;;;5058465;28;20044;-79
2022/10/22 11:44:04;;;;;;;11.32;6.80;;;;;;;;;;5058474;28;20041;-79
2022/10/22 11:46:42;;;;;;;12.80;6.95;;;;;;;;;;5057976;28;20376;-80
2022/10/22 11:49:08;;;;;;;10.55;6.32;;;;;;;;;;5055550;28;20128;-81
2022/10/22 11:51:35;;;;;;;10.77;6.43;;;;;;;;;;5056287;28;20084;-80
2022/10/22 11:54:20;;;;;;;10.85;6.10;;;;;;;;;;5056551;28;20051;-79
2022/10/22 11:56:46;;;;;;;12.90;5.90;;;;;;;;;;5056150;28;20487;-80
2022/10/22 11:59:32;;;;;;;9.82;5.20;;;;;;;;;;5057976;28;20037;-80
2022/10/22 12:01:58;;;;;;;11.25;5.65;;;;;;;;;;5051014;28;20045;-80
2022/10/22 12:04:39;;;;;;;9.43;5.97;;;;;;;;;;5053710;28;20041;-82
2022/10/22 12:07:25;;;;;;;10.02;5.45;;;;;;;;;;5054493;28;20063;-80
2022/10/22 12:09:51;;;;;;;11.70;5.60;;;;;;;;;;5055429;28;20049;-80
2022/10/22 12:12:19;;;;;;;6.60;4.63;;;;;;;;;;5056576;28;20118;-80
2022/10/22 12:14:53;;;;;;;7.38;4.95;;;;;;;;;;5056258;28;20041;-80
2022/10/22 12:17:21;;;;;;;7.10;4.15;;;;;;;;;;5037075;28;20049;-81
2022/10/22 12:20:07;;;;;;;5.97;3.33;;;;;;;;;;5051263;28;20045;-80
2022/10/22 12:22:37;;;;;;;7.15;3.72;;;;;;;;;;5049673;28;20056;-80
2022/10/22 12:25:09;;;;;;;7.47;3.17;;;;;;;;;;5054727;28;20519;-81
2022/10/22 12:27:39;;;;;;;7.45;3.63;;;;;;;;;;5053612;28;20056;-82
2022/10/22 12:30:21;;;;;;;7.05;3.63;;;;;;;;;;5054562;28;20504;-83
2022/10/22 12:32:47;;;;;;;5.97;3.17;;;;;;;;;;5034877;28;20046;-80
2022/10/22 12:35:20;;;;;;;9.35;4.00;;;;;;;;;;5052295;28;20059;-81
2022/10/22 12:37:50;;;;;;;8.05;4.15;;;;;;;;;;5043169;28;20105;-80
2022/10/22 12:40:27;;;;;;;5.03;3.72;;;;;;;;;;5043040;28;20052;-83
2022/10/22 12:42:55;;;;;;;10.13;6.05;;;;;;;;;;5048709;28;20072;-80
2022/10/22 12:45:21;;;;;;;8.30;4.00;;;;;;;;;;5054609;28;20045;-81
2022/10/22 12:47:49;;;;;;;11.07;3.97;;;;;;;;;;5053468;28;20484;-80
2022/10/22 12:50:20;;;;;;;8.55;3.50;;;;;;;;;;5055503;28;20120;-81
2022/10/22 12:52:47;;;;;;;7.15;3.75;;;;;;;;;;5054544;28;20136;-81
2022/10/22 12:55:18;;;;;;;7.28;3.40;;;;;;;;;;5057078;28;20055;-80
2022/10/22 12:57:47;;;;;;;6.25;3.55;;;;;;;;;;5037654;28;20040;-82
2022/10/22 13:00:27;;;;;;;9.50;3.92;;;;;;;;;;5051195;28;20038;-80
2022/10/22 13:02:54;;;;;;;11.25;3.70;;;;;;;;;;5047324;28;20028;-82
2022/10/22 13:05:26;;;;;;;6.80;3.13;;;;;;;;;;5058263;28;20051;-81
2022/10/22 13:08:03;;;;;;;8.00;3.22;;;;;;;;;;5053180;28;20055;-81
2022/10/22 13:10:33;;;;;;;10.73;3.05;;;;;;;;;;5053579;28;20049;-81
2022/10/22 13:13:02;;;;;;;13.60;3.40;;;;;;;;;;5053709;28;20037;-81
2022/10/22 13:15:35;;;;;;;10.88;3.25;;;;;;;;;;5053171;28;20407;-81
2022/10/22 13:18:21;;;;;;;6.78;2.63;;;;;;;;;;5053656;28;20049;-81
2022/10/22 13:20:51;;;;;;;6.07;2.42;;;;;;;;;;5033934;28;20061;-81
2022/10/22 13:23:18;;;;;;;8.57;3.25;;;;;;;;;;5034407;28;20400;-81
2022/10/22 13:25:55;;;;;;;6.07;2.50;;;;;;;;;;5036574;28;20118;-81
2022/10/22 13:28:23;;;;;;;7.57;2.10;;;;;;;;;;5048021;28;20056;-81
2022/10/22 13:30:57;;;;;;;6.03;2.33;;;;;;;;;;5053079;28;20045;-82
2022/10/22 13:33:29;;;;;;;8.18;2.42;;;;;;;;;;5053416;28;20438;-81
2022/10/22 13:35:55;;;;;;;6.55;1.90;;;;;;;;;;5051992;28;20088;-81
2022/10/22 13:38:23;;;;;;;7.30;2.28;;;;;;;;;;5055321;28;20044;-81
2022/10/22 13:40:49;;;;;;;7.88;2.22;;;;;;;;;;5057565;28;20041;-81
2022/10/22 13:43:16;;;;;;;8.05;2.08;;;;;;;;;;5055866;28;20065;-81
2022/10/22 13:45:43;;;;;;;7.68;2.85;;;;;;;;;;5040918;28;20122;-81
2022/10/22 13:48:13;;;;;;;5.80;2.17;;;;;;;;;;5035998;28;20056;-81
2022/10/22 13:50:39;;;;;;;7.25;2.08;;;;;;;;;;5037198;28;20048;-81
2022/10/22 13:53:06;;;;;;;9.73;2.13;;;;;;;;;;5036863;28;20488;-81
2022/10/22 13:55:33;;;;;;;8.05;1.90;;;;;;;;;;5037240;28;20110;-81
2022/10/22 13:58:18;;;;;;;6.35;1.80;;;;;;;;;;5037251;28;20135;-81
2022/10/22 14:00:46;;;;;;;7.47;2.42;;;;;;;;;;5037321;28;20041;-81
2022/10/22 14:03:14;;;;;;;4.15;1.70;;;;;;;;;;5056812;28;20040;-81
2022/10/22 14:05:41;;;;;;;3.80;1.77;;;;;;;;;;5056975;28;20060;-81
2022/10/22 14:08:14;;;;;;;9.27;1.90;;;;;;;;;;5056741;28;20049;-81
2022/10/22 14:10:41;;;;;;;4.10;1.75;;;;;;;;;;5057337;28;20044;-81
2022/10/22 14:13:07;;;;;;;7.55;1.80;;;;;;;;;;5056454;28;20504;-81
2022/10/22 14:15:34;;;;;;;6.55;1.70;;;;;;;;;;5056716;28;20044;-81
2022/10/22 14:18:00;;;;;;;4.07;1.80;;;;;;;;;;5038426;28;20098;-81
2022/10/22 14:20:28;;;;;;;5.53;1.98;;;;;;;;;;5055081;28;20087;-81
2022/10/22 14:22:55;;;;;;;5.30;2.00;;;;;;;;;;5055308;28;20041;-81
2022/10/22 14:25:25;;;;;;;4.10;1.50;;;;;;;;;;5056588;28;20048;-81
2022/10/22 14:27:51;;;;;;;5.10;1.65;;;;;;;;;;5056640;28;20048;-81
2022/10/22 14:30:19;;;;;;;4.00;1.35;;;;;;;;;;5056122;28;20099;-81
2022/10/22 14:32:45;;;;;;;6.35;2.25;;;;;;;;;;5057024;28;20488;-81
2022/10/22 14:35:15;;;;;;;5.47;1.83;;;;;;;;;;5056431;28;20049;-81
2022/10/22 14:37:41;;;;;;;4.93;2.00;;;;;;;;;;5055941;28;20392;-81
2022/10/22 14:40:08;;;;;;;7.70;2.15;;;;;;;;;;5056397;28;20052;-81
2022/10/22 14:42:38;;;;;;;4.25;1.85;;;;;;;;;;5056286;28;20091;-81
2022/10/22 14:45:05;;;;;;;6.45;2.25;;;;;;;;;;5056014;28;20508;-81